馬祖南竿航空站 - ATIS

METAR RCFG 161100Z 05010KT 010V070 9999 FEW010 BKN032 15/11 Q1015 NOSIG RMK 04014KT/R21 MAX WND 16KT/R03 01013KT/NJL A3000(O)=

站台狀態:Online
最後更新:2022-05-17 02:30:02